sensor_id;sensor_type;location;lat;lon;timestamp;temperature;humidity
56729;DHT22;42612;52.232;7.560;2022-10-31T00:01:55;19.50;57.80
56729;DHT22;42612;52.232;7.560;2022-10-31T00:04:21;19.50;57.70
56729;DHT22;42612;52.232;7.560;2022-10-31T00:06:46;19.50;57.70
56729;DHT22;42612;52.232;7.560;2022-10-31T00:09:12;19.50;57.60
56729;DHT22;42612;52.232;7.560;2022-10-31T00:11:38;19.50;57.70
56729;DHT22;42612;52.232;7.560;2022-10-31T00:14:03;19.50;57.70
56729;DHT22;42612;52.232;7.560;2022-10-31T00:16:29;19.40;58.30
56729;DHT22;42612;52.232;7.560;2022-10-31T00:18:56;19.50;57.70
56729;DHT22;42612;52.232;7.560;2022-10-31T00:21:26;19.40;57.70
56729;DHT22;42612;52.232;7.560;2022-10-31T00:23:52;19.40;57.60
56729;DHT22;42612;52.232;7.560;2022-10-31T00:26:18;19.40;57.70
56729;DHT22;42612;52.232;7.560;2022-10-31T00:28:44;19.40;57.70
56729;DHT22;42612;52.232;7.560;2022-10-31T00:31:10;19.40;57.80
56729;DHT22;42612;52.232;7.560;2022-10-31T00:33:37;19.40;57.80
56729;DHT22;42612;52.232;7.560;2022-10-31T00:36:04;19.40;57.80
56729;DHT22;42612;52.232;7.560;2022-10-31T00:38:30;19.30;57.70
56729;DHT22;42612;52.232;7.560;2022-10-31T00:40:56;19.40;57.80
56729;DHT22;42612;52.232;7.560;2022-10-31T00:43:22;19.30;57.80
56729;DHT22;42612;52.232;7.560;2022-10-31T00:45:47;19.30;57.90
56729;DHT22;42612;52.232;7.560;2022-10-31T00:48:13;19.30;57.90
56729;DHT22;42612;52.232;7.560;2022-10-31T00:50:39;19.30;57.90
56729;DHT22;42612;52.232;7.560;2022-10-31T00:53:05;19.30;58.50
56729;DHT22;42612;52.232;7.560;2022-10-31T00:55:30;19.20;57.80
56729;DHT22;42612;52.232;7.560;2022-10-31T00:57:56;19.30;57.80
56729;DHT22;42612;52.232;7.560;2022-10-31T01:00:22;19.20;57.60
56729;DHT22;42612;52.232;7.560;2022-10-31T01:02:48;19.20;57.60
56729;DHT22;42612;52.232;7.560;2022-10-31T01:05:14;19.20;57.60
56729;DHT22;42612;52.232;7.560;2022-10-31T01:07:39;19.20;57.60
56729;DHT22;42612;52.232;7.560;2022-10-31T01:10:06;19.10;57.50
56729;DHT22;42612;52.232;7.560;2022-10-31T01:12:43;19.10;57.60
56729;DHT22;42612;52.232;7.560;2022-10-31T01:15:11;19.10;57.50
56729;DHT22;42612;52.232;7.560;2022-10-31T01:17:37;19.10;57.60
56729;DHT22;42612;52.232;7.560;2022-10-31T01:20:04;19.10;57.60
56729;DHT22;42612;52.232;7.560;2022-10-31T01:22:30;19.00;57.50
56729;DHT22;42612;52.232;7.560;2022-10-31T01:24:56;19.00;57.30
56729;DHT22;42612;52.232;7.560;2022-10-31T01:27:21;19.00;57.10
56729;DHT22;42612;52.232;7.560;2022-10-31T01:29:47;18.90;56.90
56729;DHT22;42612;52.232;7.560;2022-10-31T01:32:13;18.90;56.80
56729;DHT22;42612;52.232;7.560;2022-10-31T01:34:38;18.90;56.70
56729;DHT22;42612;52.232;7.560;2022-10-31T01:37:04;18.80;56.70
56729;DHT22;42612;52.232;7.560;2022-10-31T01:39:29;18.80;56.60
56729;DHT22;42612;52.232;7.560;2022-10-31T01:41:55;18.80;56.70
56729;DHT22;42612;52.232;7.560;2022-10-31T01:49:18;18.60;56.80
56729;DHT22;42612;52.232;7.560;2022-10-31T01:51:49;18.60;56.90
56729;DHT22;42612;52.232;7.560;2022-10-31T01:54:19;18.60;56.90
56729;DHT22;42612;52.232;7.560;2022-10-31T01:56:48;18.50;56.80
56729;DHT22;42612;52.232;7.560;2022-10-31T01:59:15;18.50;56.90
56729;DHT22;42612;52.232;7.560;2022-10-31T02:01:43;18.40;56.90
56729;DHT22;42612;52.232;7.560;2022-10-31T02:04:08;18.40;56.90
56729;DHT22;42612;52.232;7.560;2022-10-31T02:06:38;18.40;56.90
56729;DHT22;42612;52.232;7.560;2022-10-31T02:09:14;18.40;57.00
56729;DHT22;42612;52.232;7.560;2022-10-31T02:11:40;18.40;57.00
56729;DHT22;42612;52.232;7.560;2022-10-31T02:14:06;18.30;57.00
56729;DHT22;42612;52.232;7.560;2022-10-31T02:16:32;18.30;57.10
56729;DHT22;42612;52.232;7.560;2022-10-31T02:18:57;18.30;57.00
56729;DHT22;42612;52.232;7.560;2022-10-31T02:21:32;18.30;57.00
56729;DHT22;42612;52.232;7.560;2022-10-31T02:29:48;18.20;57.00
56729;DHT22;42612;52.232;7.560;2022-10-31T02:35:25;18.10;57.00
56729;DHT22;42612;52.232;7.560;2022-10-31T02:41:30;18.00;56.60
56729;DHT22;42612;52.232;7.560;2022-10-31T02:47:06;17.90;56.40
56729;DHT22;42612;52.232;7.560;2022-10-31T02:49:39;17.80;56.40
56729;DHT22;42612;52.232;7.560;2022-10-31T02:52:14;17.80;56.40
56729;DHT22;42612;52.232;7.560;2022-10-31T02:54:43;17.70;56.50
56729;DHT22;42612;52.232;7.560;2022-10-31T02:57:09;17.70;57.20
56729;DHT22;42612;52.232;7.560;2022-10-31T02:59:35;17.80;56.60
56729;DHT22;42612;52.232;7.560;2022-10-31T03:10:17;17.50;56.70
56729;DHT22;42612;52.232;7.560;2022-10-31T03:13:24;17.50;56.60
56729;DHT22;42612;52.232;7.560;2022-10-31T03:18:44;17.40;56.70
56729;DHT22;42612;52.232;7.560;2022-10-31T03:21:16;17.40;56.70
56729;DHT22;42612;52.232;7.560;2022-10-31T03:23:46;17.40;56.70
56729;DHT22;42612;52.232;7.560;2022-10-31T03:26:12;17.30;56.70
56729;DHT22;42612;52.232;7.560;2022-10-31T03:28:53;17.30;56.80
56729;DHT22;42612;52.232;7.560;2022-10-31T03:31:23;17.30;56.90
56729;DHT22;42612;52.232;7.560;2022-10-31T03:33:51;17.30;56.90
56729;DHT22;42612;52.232;7.560;2022-10-31T03:36:18;17.30;56.80
56729;DHT22;42612;52.232;7.560;2022-10-31T03:38:44;17.20;56.60
56729;DHT22;42612;52.232;7.560;2022-10-31T03:41:13;17.20;56.50
56729;DHT22;42612;52.232;7.560;2022-10-31T03:43:42;17.20;56.50
56729;DHT22;42612;52.232;7.560;2022-10-31T03:46:12;17.10;56.40
56729;DHT22;42612;52.232;7.560;2022-10-31T03:48:37;17.00;56.40
56729;DHT22;42612;52.232;7.560;2022-10-31T03:51:12;17.10;56.50
56729;DHT22;42612;52.232;7.560;2022-10-31T03:53:44;17.00;56.50
56729;DHT22;42612;52.232;7.560;2022-10-31T03:56:18;17.00;56.60
56729;DHT22;42612;52.232;7.560;2022-10-31T03:58:47;17.00;57.20
56729;DHT22;42612;52.232;7.560;2022-10-31T04:01:16;17.00;56.70
56729;DHT22;42612;52.232;7.560;2022-10-31T04:03:43;17.00;56.80
56729;DHT22;42612;52.232;7.560;2022-10-31T04:06:10;16.90;56.80
56729;DHT22;42612;52.232;7.560;2022-10-31T04:08:48;16.90;56.90
56729;DHT22;42612;52.232;7.560;2022-10-31T04:11:17;16.90;56.90
56729;DHT22;42612;52.232;7.560;2022-10-31T04:13:44;16.90;57.60
56729;DHT22;42612;52.232;7.560;2022-10-31T04:16:10;16.90;56.90
56729;DHT22;42612;52.232;7.560;2022-10-31T04:18:36;16.90;57.10
56729;DHT22;42612;52.232;7.560;2022-10-31T04:21:04;17.00;57.30
56729;DHT22;42612;52.232;7.560;2022-10-31T04:23:31;16.90;57.20
56729;DHT22;42612;52.232;7.560;2022-10-31T04:25:57;16.90;57.30
56729;DHT22;42612;52.232;7.560;2022-10-31T04:28:23;16.90;57.30
56729;DHT22;42612;52.232;7.560;2022-10-31T04:30:48;17.00;57.30
56729;DHT22;42612;52.232;7.560;2022-10-31T04:33:14;17.00;57.30
56729;DHT22;42612;52.232;7.560;2022-10-31T04:35:40;16.90;57.10
56729;DHT22;42612;52.232;7.560;2022-10-31T04:38:06;17.00;57.10
56729;DHT22;42612;52.232;7.560;2022-10-31T04:40:31;17.00;57.80
56729;DHT22;42612;52.232;7.560;2022-10-31T04:42:57;16.90;57.10
56729;DHT22;42612;52.232;7.560;2022-10-31T04:45:22;16.90;57.00
56729;DHT22;42612;52.232;7.560;2022-10-31T04:47:48;16.90;57.10
56729;DHT22;42612;52.232;7.560;2022-10-31T04:50:14;16.90;57.10
56729;DHT22;42612;52.232;7.560;2022-10-31T04:52:43;16.90;57.00
56729;DHT22;42612;52.232;7.560;2022-10-31T04:55:10;16.90;57.00
56729;DHT22;42612;52.232;7.560;2022-10-31T04:57:43;16.90;56.90
56729;DHT22;42612;52.232;7.560;2022-10-31T05:00:13;16.80;56.80
56729;DHT22;42612;52.232;7.560;2022-10-31T05:02:46;16.80;56.90
56729;DHT22;42612;52.232;7.560;2022-10-31T05:05:13;16.80;56.80
56729;DHT22;42612;52.232;7.560;2022-10-31T05:07:40;16.80;56.80
56729;DHT22;42612;52.232;7.560;2022-10-31T05:10:07;16.70;56.80
56729;DHT22;42612;52.232;7.560;2022-10-31T05:12:36;16.70;56.90
56729;DHT22;42612;52.232;7.560;2022-10-31T05:15:03;16.70;56.90
56729;DHT22;42612;52.232;7.560;2022-10-31T05:17:30;16.70;57.00
56729;DHT22;42612;52.232;7.560;2022-10-31T05:19:56;16.60;57.00
56729;DHT22;42612;52.232;7.560;2022-10-31T05:22:21;16.60;57.00
56729;DHT22;42612;52.232;7.560;2022-10-31T05:24:47;16.60;57.00
56729;DHT22;42612;52.232;7.560;2022-10-31T05:27:13;16.60;56.90
56729;DHT22;42612;52.232;7.560;2022-10-31T05:29:38;16.60;57.00
56729;DHT22;42612;52.232;7.560;2022-10-31T05:32:04;16.50;57.10
56729;DHT22;42612;52.232;7.560;2022-10-31T05:34:29;16.50;57.10
56729;DHT22;42612;52.232;7.560;2022-10-31T05:36:55;16.50;57.20
56729;DHT22;42612;52.232;7.560;2022-10-31T05:39:21;16.50;57.20
56729;DHT22;42612;52.232;7.560;2022-10-31T05:41:47;16.50;57.20
56729;DHT22;42612;52.232;7.560;2022-10-31T05:44:13;16.50;57.20
56729;DHT22;42612;52.232;7.560;2022-10-31T05:46:38;16.50;57.50
56729;DHT22;42612;52.232;7.560;2022-10-31T05:49:04;16.40;57.40
56729;DHT22;42612;52.232;7.560;2022-10-31T05:51:29;16.50;57.60
56729;DHT22;42612;52.232;7.560;2022-10-31T05:53:55;16.50;57.60
56729;DHT22;42612;52.232;7.560;2022-10-31T05:56:20;16.50;57.70
56729;DHT22;42612;52.232;7.560;2022-10-31T05:58:46;16.40;57.60
56729;DHT22;42612;52.232;7.560;2022-10-31T06:01:12;16.50;57.70
56729;DHT22;42612;52.232;7.560;2022-10-31T06:03:37;16.50;57.70
56729;DHT22;42612;52.232;7.560;2022-10-31T06:06:03;16.50;57.60
56729;DHT22;42612;52.232;7.560;2022-10-31T06:08:29;16.50;57.70
56729;DHT22;42612;52.232;7.560;2022-10-31T06:10:54;16.50;57.70
56729;DHT22;42612;52.232;7.560;2022-10-31T06:13:20;16.50;57.60
56729;DHT22;42612;52.232;7.560;2022-10-31T06:15:46;16.50;57.70
56729;DHT22;42612;52.232;7.560;2022-10-31T06:18:12;16.40;57.60
56729;DHT22;42612;52.232;7.560;2022-10-31T06:20:37;16.40;57.50
56729;DHT22;42612;52.232;7.560;2022-10-31T06:23:03;16.40;57.50
56729;DHT22;42612;52.232;7.560;2022-10-31T06:25:29;16.40;57.40
56729;DHT22;42612;52.232;7.560;2022-10-31T06:27:55;16.40;57.40
56729;DHT22;42612;52.232;7.560;2022-10-31T06:30:20;16.40;58.10
56729;DHT22;42612;52.232;7.560;2022-10-31T06:32:46;16.30;57.50
56729;DHT22;42612;52.232;7.560;2022-10-31T06:35:12;16.30;57.50
56729;DHT22;42612;52.232;7.560;2022-10-31T06:37:38;16.30;57.60
56729;DHT22;42612;52.232;7.560;2022-10-31T06:40:04;16.30;57.50
56729;DHT22;42612;52.232;7.560;2022-10-31T06:42:30;16.30;57.70
56729;DHT22;42612;52.232;7.560;2022-10-31T06:44:56;16.30;57.80
56729;DHT22;42612;52.232;7.560;2022-10-31T06:47:21;16.30;57.90
56729;DHT22;42612;52.232;7.560;2022-10-31T06:49:48;16.30;58.00
56729;DHT22;42612;52.232;7.560;2022-10-31T06:52:13;16.30;57.90
56729;DHT22;42612;52.232;7.560;2022-10-31T06:54:39;16.30;57.90
56729;DHT22;42612;52.232;7.560;2022-10-31T06:57:05;16.30;57.90
56729;DHT22;42612;52.232;7.560;2022-10-31T06:59:30;16.40;58.00
56729;DHT22;42612;52.232;7.560;2022-10-31T07:01:57;16.40;58.00
56729;DHT22;42612;52.232;7.560;2022-10-31T07:04:23;16.30;57.90
56729;DHT22;42612;52.232;7.560;2022-10-31T07:06:52;16.20;57.90
56729;DHT22;42612;52.232;7.560;2022-10-31T07:09:18;16.20;57.90
56729;DHT22;42612;52.232;7.560;2022-10-31T07:11:44;16.20;57.90
56729;DHT22;42612;52.232;7.560;2022-10-31T07:14:09;16.20;58.00
56729;DHT22;42612;52.232;7.560;2022-10-31T07:16:35;16.20;58.00
56729;DHT22;42612;52.232;7.560;2022-10-31T07:19:00;16.30;58.10
56729;DHT22;42612;52.232;7.560;2022-10-31T07:21:26;16.20;58.00
56729;DHT22;42612;52.232;7.560;2022-10-31T07:23:52;16.30;58.10
56729;DHT22;42612;52.232;7.560;2022-10-31T07:26:17;16.30;58.40
56729;DHT22;42612;52.232;7.560;2022-10-31T07:28:43;16.30;58.40
56729;DHT22;42612;52.232;7.560;2022-10-31T07:31:08;16.30;58.50
56729;DHT22;42612;52.232;7.560;2022-10-31T07:33:34;16.40;58.60
56729;DHT22;42612;52.232;7.560;2022-10-31T07:35:59;16.40;58.70
56729;DHT22;42612;52.232;7.560;2022-10-31T07:38:25;16.40;58.70
56729;DHT22;42612;52.232;7.560;2022-10-31T07:40:51;16.50;58.90
56729;DHT22;42612;52.232;7.560;2022-10-31T07:43:20;16.50;58.90
56729;DHT22;42612;52.232;7.560;2022-10-31T07:45:49;16.50;58.90
56729;DHT22;42612;52.232;7.560;2022-10-31T07:48:18;16.50;59.10
56729;DHT22;42612;52.232;7.560;2022-10-31T07:50:43;16.60;59.10
56729;DHT22;42612;52.232;7.560;2022-10-31T07:53:10;16.60;59.10
56729;DHT22;42612;52.232;7.560;2022-10-31T07:55:36;16.60;59.10
56729;DHT22;42612;52.232;7.560;2022-10-31T07:58:07;16.70;59.20
56729;DHT22;42612;52.232;7.560;2022-10-31T08:00:35;16.70;59.20
56729;DHT22;42612;52.232;7.560;2022-10-31T08:03:08;16.70;59.20
56729;DHT22;42612;52.232;7.560;2022-10-31T08:05:35;16.80;59.30
56729;DHT22;42612;52.232;7.560;2022-10-31T08:08:02;16.80;59.20
56729;DHT22;42612;52.232;7.560;2022-10-31T08:10:29;16.80;59.30
56729;DHT22;42612;52.232;7.560;2022-10-31T08:12:59;16.80;59.30
56729;DHT22;42612;52.232;7.560;2022-10-31T08:15:43;16.90;59.50
56729;DHT22;42612;52.232;7.560;2022-10-31T08:18:11;16.90;59.40
56729;DHT22;42612;52.232;7.560;2022-10-31T08:20:38;16.90;59.30
56729;DHT22;42612;52.232;7.560;2022-10-31T08:23:04;17.00;59.50
56729;DHT22;42612;52.232;7.560;2022-10-31T08:25:31;17.00;59.50
56729;DHT22;42612;52.232;7.560;2022-10-31T08:27:59;17.00;59.50
56729;DHT22;42612;52.232;7.560;2022-10-31T08:30:26;17.10;59.50
56729;DHT22;42612;52.232;7.560;2022-10-31T08:32:58;17.10;59.50
56729;DHT22;42612;52.232;7.560;2022-10-31T08:35:24;17.10;59.60
56729;DHT22;42612;52.232;7.560;2022-10-31T08:37:53;17.10;59.60
56729;DHT22;42612;52.232;7.560;2022-10-31T08:40:20;17.10;59.60
56729;DHT22;42612;52.232;7.560;2022-10-31T08:42:46;17.10;59.60
56729;DHT22;42612;52.232;7.560;2022-10-31T08:45:11;17.20;59.70
56729;DHT22;42612;52.232;7.560;2022-10-31T08:47:37;17.20;59.70
56729;DHT22;42612;52.232;7.560;2022-10-31T08:50:02;17.20;59.80
56729;DHT22;42612;52.232;7.560;2022-10-31T08:52:28;17.20;59.80
56729;DHT22;42612;52.232;7.560;2022-10-31T08:54:54;17.30;59.90
56729;DHT22;42612;52.232;7.560;2022-10-31T08:57:19;17.30;59.90
56729;DHT22;42612;52.232;7.560;2022-10-31T08:59:45;17.30;60.00
56729;DHT22;42612;52.232;7.560;2022-10-31T09:02:10;17.40;60.00
56729;DHT22;42612;52.232;7.560;2022-10-31T09:04:36;17.40;60.00
56729;DHT22;42612;52.232;7.560;2022-10-31T09:07:02;17.40;60.10
56729;DHT22;42612;52.232;7.560;2022-10-31T09:09:27;17.50;60.30
56729;DHT22;42612;52.232;7.560;2022-10-31T09:11:53;17.60;60.30
56729;DHT22;42612;52.232;7.560;2022-10-31T09:14:18;17.50;60.20
56729;DHT22;42612;52.232;7.560;2022-10-31T09:16:44;17.60;60.30
56729;DHT22;42612;52.232;7.560;2022-10-31T09:19:10;17.60;60.30
56729;DHT22;42612;52.232;7.560;2022-10-31T09:21:35;17.70;60.40
56729;DHT22;42612;52.232;7.560;2022-10-31T09:24:01;17.70;60.50
56729;DHT22;42612;52.232;7.560;2022-10-31T09:26:26;17.80;60.60
56729;DHT22;42612;52.232;7.560;2022-10-31T09:28:52;17.80;60.40
56729;DHT22;42612;52.232;7.560;2022-10-31T09:31:17;17.80;60.40
56729;DHT22;42612;52.232;7.560;2022-10-31T09:33:43;17.90;60.60
56729;DHT22;42612;52.232;7.560;2022-10-31T09:36:09;18.00;60.60
56729;DHT22;42612;52.232;7.560;2022-10-31T09:38:34;18.00;60.50
56729;DHT22;42612;52.232;7.560;2022-10-31T09:46:41;18.10;60.50
56729;DHT22;42612;52.232;7.560;2022-10-31T09:52:26;18.30;60.70
56729;DHT22;42612;52.232;7.560;2022-10-31T09:55:06;18.30;60.80
56729;DHT22;42612;52.232;7.560;2022-10-31T09:57:35;18.40;60.80
56729;DHT22;42612;52.232;7.560;2022-10-31T10:00:05;18.50;61.00
56729;DHT22;42612;52.232;7.560;2022-10-31T10:02:34;18.50;60.70
56729;DHT22;42612;52.232;7.560;2022-10-31T10:05:04;18.60;60.80
56729;DHT22;42612;52.232;7.560;2022-10-31T10:08:10;18.60;60.80
56729;DHT22;42612;52.232;7.560;2022-10-31T10:10:31;18.70;60.80
56729;DHT22;42612;52.232;7.560;2022-10-31T10:13:15;18.80;61.00
56729;DHT22;42612;52.232;7.560;2022-10-31T10:26:58;19.10;60.60
56729;DHT22;42612;52.232;7.560;2022-10-31T10:29:44;19.20;60.70
56729;DHT22;42612;52.232;7.560;2022-10-31T10:32:23;19.30;60.70
56729;DHT22;42612;52.232;7.560;2022-10-31T10:35:22;19.30;60.70
56729;DHT22;42612;52.232;7.560;2022-10-31T10:37:50;19.40;60.80
56729;DHT22;42612;52.232;7.560;2022-10-31T10:42:48;19.60;61.50
56729;DHT22;42612;52.232;7.560;2022-10-31T10:45:37;19.60;60.60
56729;DHT22;42612;52.232;7.560;2022-10-31T10:51:02;19.70;60.40
56729;DHT22;42612;52.232;7.560;2022-10-31T10:53:40;19.80;60.40
56729;DHT22;42612;52.232;7.560;2022-10-31T10:59:13;19.80;60.30
56729;DHT22;42612;52.232;7.560;2022-10-31T11:01:42;19.90;60.30
56729;DHT22;42612;52.232;7.560;2022-10-31T11:07:04;19.90;60.20
56729;DHT22;42612;52.232;7.560;2022-10-31T11:09:32;20.00;60.20
56729;DHT22;42612;52.232;7.560;2022-10-31T11:11:58;20.00;60.10
56729;DHT22;42612;52.232;7.560;2022-10-31T11:14:25;20.00;60.00
56729;DHT22;42612;52.232;7.560;2022-10-31T11:16:56;20.00;59.90
56729;DHT22;42612;52.232;7.560;2022-10-31T11:19:34;20.00;59.90
56729;DHT22;42612;52.232;7.560;2022-10-31T11:22:07;20.10;59.90
56729;DHT22;42612;52.232;7.560;2022-10-31T11:24:38;20.10;59.90
56729;DHT22;42612;52.232;7.560;2022-10-31T11:30:04;20.10;59.90
56729;DHT22;42612;52.232;7.560;2022-10-31T11:32:31;20.10;59.90
56729;DHT22;42612;52.232;7.560;2022-10-31T11:34:58;20.10;59.90
56729;DHT22;42612;52.232;7.560;2022-10-31T11:37:27;20.10;59.90
56729;DHT22;42612;52.232;7.560;2022-10-31T11:39:55;20.10;59.90
56729;DHT22;42612;52.232;7.560;2022-10-31T11:42:24;20.10;60.00
56729;DHT22;42612;52.232;7.560;2022-10-31T11:44:52;20.20;60.10
56729;DHT22;42612;52.232;7.560;2022-10-31T11:47:22;20.20;60.70
56729;DHT22;42612;52.232;7.560;2022-10-31T11:49:50;20.20;60.00
56729;DHT22;42612;52.232;7.560;2022-10-31T11:52:17;20.30;60.10
56729;DHT22;42612;52.232;7.560;2022-10-31T11:54:45;20.30;60.00
56729;DHT22;42612;52.232;7.560;2022-10-31T11:57:32;20.30;60.00
56729;DHT22;42612;52.232;7.560;2022-10-31T11:59:59;20.30;59.90
56729;DHT22;42612;52.232;7.560;2022-10-31T12:02:28;20.40;59.80
56729;DHT22;42612;52.232;7.560;2022-10-31T12:04:57;20.40;59.70
56729;DHT22;42612;52.232;7.560;2022-10-31T12:07:27;20.40;59.60
56729;DHT22;42612;52.232;7.560;2022-10-31T12:09:53;20.40;59.50
56729;DHT22;42612;52.232;7.560;2022-10-31T12:12:34;20.40;59.40
56729;DHT22;42612;52.232;7.560;2022-10-31T12:15:30;20.40;59.30
56729;DHT22;42612;52.232;7.560;2022-10-31T12:34:30;20.50;59.30
56729;DHT22;42612;52.232;7.560;2022-10-31T12:39:53;20.60;59.40
56729;DHT22;42612;52.232;7.560;2022-10-31T12:45:15;20.70;59.40
56729;DHT22;42612;52.232;7.560;2022-10-31T12:48:10;20.70;59.30
56729;DHT22;42612;52.232;7.560;2022-10-31T12:51:28;20.70;59.30
56729;DHT22;42612;52.232;7.560;2022-10-31T12:54:21;20.80;59.20
56729;DHT22;42612;52.232;7.560;2022-10-31T12:57:02;20.90;59.20
56729;DHT22;42612;52.232;7.560;2022-10-31T12:59:33;21.00;59.20
56729;DHT22;42612;52.232;7.560;2022-10-31T13:04:51;21.10;58.90
56729;DHT22;42612;52.232;7.560;2022-10-31T13:07:29;21.10;58.70
56729;DHT22;42612;52.232;7.560;2022-10-31T13:10:02;21.20;58.60
56729;DHT22;42612;52.232;7.560;2022-10-31T13:12:49;21.20;58.50
56729;DHT22;42612;52.232;7.560;2022-10-31T13:15:20;21.20;58.50
56729;DHT22;42612;52.232;7.560;2022-10-31T13:17:48;21.30;58.50
56729;DHT22;42612;52.232;7.560;2022-10-31T13:20:27;21.30;58.40
56729;DHT22;42612;52.232;7.560;2022-10-31T13:23:23;21.30;58.40
56729;DHT22;42612;52.232;7.560;2022-10-31T13:25:56;21.30;58.20
56729;DHT22;42612;52.232;7.560;2022-10-31T13:31:13;21.30;58.10
56729;DHT22;42612;52.232;7.560;2022-10-31T13:33:39;21.30;57.90
56729;DHT22;42612;52.232;7.560;2022-10-31T13:38:36;21.30;57.90
56729;DHT22;42612;52.232;7.560;2022-10-31T13:44:18;21.20;57.90
56729;DHT22;42612;52.232;7.560;2022-10-31T13:46:46;21.30;58.00
56729;DHT22;42612;52.232;7.560;2022-10-31T13:54:34;21.20;58.00
56729;DHT22;42612;52.232;7.560;2022-10-31T13:57:01;21.20;58.00
56729;DHT22;42612;52.232;7.560;2022-10-31T13:59:28;21.20;58.00
56729;DHT22;42612;52.232;7.560;2022-10-31T14:01:55;21.20;58.00
56729;DHT22;42612;52.232;7.560;2022-10-31T14:04:37;21.20;58.00
56729;DHT22;42612;52.232;7.560;2022-10-31T14:07:14;21.20;58.00
56729;DHT22;42612;52.232;7.560;2022-10-31T14:09:50;21.10;58.00
56729;DHT22;42612;52.232;7.560;2022-10-31T14:12:39;21.20;58.10
56729;DHT22;42612;52.232;7.560;2022-10-31T14:23:09;21.10;58.00
56729;DHT22;42612;52.232;7.560;2022-10-31T14:25:53;21.20;58.10
56729;DHT22;42612;52.232;7.560;2022-10-31T14:28:20;21.10;58.10
56729;DHT22;42612;52.232;7.560;2022-10-31T14:30:54;21.10;58.10
56729;DHT22;42612;52.232;7.560;2022-10-31T14:33:22;21.10;58.10
56729;DHT22;42612;52.232;7.560;2022-10-31T14:38:52;21.10;58.10
56729;DHT22;42612;52.232;7.560;2022-10-31T14:50:13;21.10;58.10
56729;DHT22;42612;52.232;7.560;2022-10-31T14:52:57;21.10;58.20
56729;DHT22;42612;52.232;7.560;2022-10-31T14:55:27;21.10;58.20
56729;DHT22;42612;52.232;7.560;2022-10-31T14:57:54;21.10;58.20
56729;DHT22;42612;52.232;7.560;2022-10-31T15:00:22;21.00;58.10
56729;DHT22;42612;52.232;7.560;2022-10-31T15:05:23;21.00;58.20
56729;DHT22;42612;52.232;7.560;2022-10-31T15:07:58;21.00;58.20
56729;DHT22;42612;52.232;7.560;2022-10-31T15:10:28;21.00;58.20
56729;DHT22;42612;52.232;7.560;2022-10-31T15:13:10;21.00;58.10
56729;DHT22;42612;52.232;7.560;2022-10-31T15:15:40;21.00;58.20
56729;DHT22;42612;52.232;7.560;2022-10-31T15:18:06;21.00;58.20
56729;DHT22;42612;52.232;7.560;2022-10-31T15:20:35;21.00;58.20
56729;DHT22;42612;52.232;7.560;2022-10-31T15:23:03;21.00;58.20
56729;DHT22;42612;52.232;7.560;2022-10-31T15:25:32;21.00;58.20
56729;DHT22;42612;52.232;7.560;2022-10-31T15:27:59;21.00;58.10
56729;DHT22;42612;52.232;7.560;2022-10-31T15:30:25;21.00;58.20
56729;DHT22;42612;52.232;7.560;2022-10-31T15:32:52;21.00;58.20
56729;DHT22;42612;52.232;7.560;2022-10-31T15:35:26;21.00;58.20
56729;DHT22;42612;52.232;7.560;2022-10-31T15:37:56;21.00;58.20
56729;DHT22;42612;52.232;7.560;2022-10-31T15:40:23;21.00;58.20
56729;DHT22;42612;52.232;7.560;2022-10-31T15:42:53;20.90;58.10
56729;DHT22;42612;52.232;7.560;2022-10-31T15:45:25;20.90;58.10
56729;DHT22;42612;52.232;7.560;2022-10-31T15:48:13;20.80;58.10
56729;DHT22;42612;52.232;7.560;2022-10-31T15:50:46;20.90;58.20
56729;DHT22;42612;52.232;7.560;2022-10-31T15:53:27;20.90;58.30
56729;DHT22;42612;52.232;7.560;2022-10-31T15:56:08;20.80;58.20
56729;DHT22;42612;52.232;7.560;2022-10-31T15:58:44;20.80;58.20
56729;DHT22;42612;52.232;7.560;2022-10-31T16:01:20;20.80;58.30
56729;DHT22;42612;52.232;7.560;2022-10-31T16:06:22;20.80;58.30
56729;DHT22;42612;52.232;7.560;2022-10-31T16:08:48;20.80;58.30
56729;DHT22;42612;52.232;7.560;2022-10-31T16:11:32;20.70;58.30
56729;DHT22;42612;52.232;7.560;2022-10-31T16:14:06;20.70;58.30
56729;DHT22;42612;52.232;7.560;2022-10-31T16:16:54;20.70;58.30
56729;DHT22;42612;52.232;7.560;2022-10-31T16:19:25;20.70;58.30
56729;DHT22;42612;52.232;7.560;2022-10-31T16:21:54;20.70;58.30
56729;DHT22;42612;52.232;7.560;2022-10-31T16:24:30;20.70;58.30
56729;DHT22;42612;52.232;7.560;2022-10-31T16:27:04;20.60;58.30
56729;DHT22;42612;52.232;7.560;2022-10-31T16:29:44;20.60;58.30
56729;DHT22;42612;52.232;7.560;2022-10-31T16:32:31;20.60;58.30
56729;DHT22;42612;52.232;7.560;2022-10-31T16:35:46;20.60;58.30
56729;DHT22;42612;52.232;7.560;2022-10-31T16:37:53;20.60;58.30
56729;DHT22;42612;52.232;7.560;2022-10-31T16:40:19;20.50;58.30
56729;DHT22;42612;52.232;7.560;2022-10-31T16:42:46;20.50;58.30
56729;DHT22;42612;52.232;7.560;2022-10-31T16:45:16;20.50;58.30
56729;DHT22;42612;52.232;7.560;2022-10-31T16:47:43;20.50;58.30
56729;DHT22;42612;52.232;7.560;2022-10-31T16:50:14;20.50;58.40
56729;DHT22;42612;52.232;7.560;2022-10-31T16:52:43;20.50;58.40
56729;DHT22;42612;52.232;7.560;2022-10-31T16:55:11;20.50;58.40
56729;DHT22;42612;52.232;7.560;2022-10-31T16:57:38;20.40;58.40
56729;DHT22;42612;52.232;7.560;2022-10-31T17:00:08;20.40;58.40
56729;DHT22;42612;52.232;7.560;2022-10-31T17:02:38;20.40;58.40
56729;DHT22;42612;52.232;7.560;2022-10-31T17:05:04;20.40;58.40
56729;DHT22;42612;52.232;7.560;2022-10-31T17:07:30;20.30;58.40
56729;DHT22;42612;52.232;7.560;2022-10-31T17:09:55;20.30;58.40
56729;DHT22;42612;52.232;7.560;2022-10-31T17:12:21;20.30;58.50
56729;DHT22;42612;52.232;7.560;2022-10-31T17:14:50;20.30;58.50
56729;DHT22;42612;52.232;7.560;2022-10-31T17:17:16;20.30;58.50
56729;DHT22;42612;52.232;7.560;2022-10-31T17:19:41;20.20;58.40
56729;DHT22;42612;52.232;7.560;2022-10-31T17:22:09;20.20;58.40
56729;DHT22;42612;52.232;7.560;2022-10-31T17:24:36;20.30;58.50
56729;DHT22;42612;52.232;7.560;2022-10-31T17:27:02;20.20;58.50
56729;DHT22;42612;52.232;7.560;2022-10-31T17:29:28;20.20;58.50
56729;DHT22;42612;52.232;7.560;2022-10-31T17:31:53;20.20;58.50
56729;DHT22;42612;52.232;7.560;2022-10-31T17:34:19;20.20;58.50
56729;DHT22;42612;52.232;7.560;2022-10-31T17:36:48;20.20;58.50
56729;DHT22;42612;52.232;7.560;2022-10-31T17:39:20;20.20;58.50
56729;DHT22;42612;52.232;7.560;2022-10-31T17:41:49;20.20;58.50
56729;DHT22;42612;52.232;7.560;2022-10-31T17:44:14;20.20;58.50
56729;DHT22;42612;52.232;7.560;2022-10-31T17:46:40;20.20;58.50
56729;DHT22;42612;52.232;7.560;2022-10-31T17:49:06;20.20;58.50
56729;DHT22;42612;52.232;7.560;2022-10-31T17:51:33;20.10;58.50
56729;DHT22;42612;52.232;7.560;2022-10-31T17:53:59;20.10;58.50